Time;durP1;ratioP1;P1;durP2;ratioP2;P2;SDS_P1;SDS_P2;PMS_P1;PMS_P2;Temp;Humidity;BMP_temperature;BMP_pressure;BME280_temperature;BME280_humidity;BME280_pressure;Samples;Min_cycle;Max_cycle;Signal;HPM_P1;HPM_P2
2022/06/25 00:01:24;;;;;;;4.30;3.25;;;22.40;65.90;;;;;;646205;221;26564;-76
2022/06/25 00:03:52;;;;;;;3.50;3.20;;;22.40;65.90;;;;;;640916;221;26520;-74
2022/06/25 00:06:20;;;;;;;3.22;3.03;;;22.30;64.30;;;;;;650813;220;26484;-74
2022/06/25 00:08:48;;;;;;;2.72;2.53;;;22.30;66.40;;;;;;639615;221;26629;-74
2022/06/25 00:13:48;;;;;;;3.10;2.90;;;22.30;66.80;;;;;;638591;221;26590;-75
2022/06/25 00:16:15;;;;;;;3.22;2.95;;;22.30;65.50;;;;;;637897;221;26557;-74
2022/06/25 00:18:42;;;;;;;3.28;3.00;;;22.30;67.90;;;;;;649755;221;26861;-75
2022/06/25 00:21:09;;;;;;;3.55;3.25;;;22.20;68.20;;;;;;644859;221;26586;-75
2022/06/25 00:23:37;;;;;;;3.92;3.62;;;22.20;69.40;;;;;;638966;223;27215;-74
2022/06/25 00:26:04;;;;;;;3.22;2.87;;;22.10;70.50;;;;;;637943;225;26508;-74
2022/06/25 00:28:32;;;;;;;3.20;2.90;;;22.10;70.50;;;;;;643281;218;26806;-75
2022/06/25 00:30:59;;;;;;;3.20;2.97;;;22.00;72.80;;;;;;644471;221;26572;-75
2022/06/25 00:33:26;;;;;;;3.53;3.33;;;22.00;71.70;;;;;;641003;221;26806;-75
2022/06/25 00:35:53;;;;;;;3.50;3.20;;;22.00;72.90;;;;;;643515;221;26545;-75
2022/06/25 00:38:21;;;;;;;3.58;3.37;;;21.90;75.60;;;;;;646139;221;26511;-75
2022/06/25 00:40:49;;;;;;;3.25;3.05;;;21.90;74.70;;;;;;638165;224;26519;-75
2022/06/25 00:43:17;;;;;;;3.22;3.03;;;21.80;77.70;;;;;;639377;221;26601;-76
2022/06/25 00:45:45;;;;;;;3.17;2.97;;;21.70;79.40;;;;;;641092;220;26537;-75
2022/06/25 00:48:12;;;;;;;3.50;3.30;;;21.60;80.40;;;;;;638399;225;26560;-75
2022/06/25 00:50:40;;;;;;;3.72;3.42;;;21.60;80.40;;;;;;638578;221;26526;-76
2022/06/25 00:53:07;;;;;;;3.20;3.00;;;21.50;79.20;;;;;;639039;223;26561;-76
2022/06/25 00:55:34;;;;;;;3.90;3.60;;;21.50;81.10;;;;;;648174;220;26914;-76
2022/06/25 00:58:01;;;;;;;4.05;3.72;;;21.40;82.10;;;;;;651527;221;26525;-75
2022/06/25 01:00:29;;;;;;;4.15;3.85;;;21.30;82.90;;;;;;639440;221;26806;-76
2022/06/25 01:02:56;;;;;;;6.03;4.72;;;21.30;82.50;;;;;;638144;225;26561;-75
2022/06/25 01:05:24;;;;;;;5.15;4.62;;;21.20;85.70;;;;;;640320;221;26517;-72
2022/06/25 01:07:52;;;;;;;6.35;5.75;;;21.20;88.30;;;;;;643659;221;26567;-71
2022/06/25 01:10:20;;;;;;;6.50;5.55;;;21.20;88.20;;;;;;640361;221;26629;-71
2022/06/25 01:12:47;;;;;;;7.15;6.53;;;21.10;90.00;;;;;;644271;222;26482;-71
2022/06/25 01:15:15;;;;;;;8.02;7.18;;;21.10;87.50;;;;;;639719;221;26903;-72
2022/06/25 01:17:42;;;;;;;7.60;6.90;;;21.10;89.80;;;;;;638539;225;26559;-71
2022/06/25 01:20:10;;;;;;;8.32;7.60;;;21.00;88.90;;;;;;638437;223;26605;-71
2022/06/25 01:22:38;;;;;;;8.40;7.62;;;20.90;88.70;;;;;;647698;221;26768;-71
2022/06/25 01:25:07;;;;;;;8.63;7.82;;;21.00;90.70;;;;;;639350;221;26772;-71
2022/06/25 01:27:35;;;;;;;9.18;8.27;;;20.90;90.80;;;;;;638155;221;26566;-71
2022/06/25 01:30:02;;;;;;;9.88;8.98;;;20.90;91.80;;;;;;638042;224;26749;-71
2022/06/25 01:32:29;;;;;;;9.98;8.95;;;20.90;90.10;;;;;;638378;223;26567;-71
2022/06/25 01:34:56;;;;;;;9.73;8.90;;;20.80;91.10;;;;;;644072;223;26830;-71
2022/06/25 01:37:24;;;;;;;11.10;9.98;;;20.80;91.00;;;;;;647079;221;26809;-71
2022/06/25 01:39:53;;;;;;;10.65;9.73;;;20.70;91.00;;;;;;650670;219;26603;-71
2022/06/25 01:45:04;;;;;;;10.93;9.65;;;20.70;92.70;;;;;;649621;220;26598;-71
2022/06/25 01:47:31;;;;;;;10.00;9.10;;;20.60;92.80;;;;;;641768;221;26759;-71
2022/06/25 01:49:58;;;;;;;10.45;9.45;;;20.60;94.30;;;;;;645207;219;26558;-71
2022/06/25 01:52:26;;;;;;;10.32;9.23;;;20.60;94.70;;;;;;644787;221;26768;-71
2022/06/25 01:54:53;;;;;;;10.23;9.32;;;20.60;92.30;;;;;;638876;221;26797;-71
2022/06/25 01:57:20;;;;;;;10.60;9.55;;;20.60;92.20;;;;;;639336;221;26860;-71
2022/06/25 01:59:48;;;;;;;10.45;9.45;;;20.50;93.80;;;;;;638133;224;26544;-70
2022/06/25 02:02:14;;;;;;;10.20;9.02;;;20.50;92.90;;;;;;638973;221;26753;-71
2022/06/25 02:04:42;;;;;;;10.52;9.52;;;20.50;94.60;;;;;;639748;221;26565;-71
2022/06/25 02:07:09;;;;;;;11.68;10.00;;;20.50;95.80;;;;;;639825;220;26779;-71
2022/06/25 02:09:36;;;;;;;9.85;8.85;;;20.50;95.20;;;;;;642683;221;26611;-71
2022/06/25 02:12:03;;;;;;;9.68;8.77;;;20.50;95.80;;;;;;639237;221;26843;-71
2022/06/25 02:14:31;;;;;;;10.10;9.20;;;20.40;96.00;;;;;;638030;225;26492;-71
2022/06/25 02:16:59;;;;;;;10.48;9.55;;;20.30;97.00;;;;;;639387;222;26517;-71
2022/06/25 02:19:27;;;;;;;10.32;9.13;;;20.30;95.60;;;;;;639120;224;26532;-71
2022/06/25 02:21:56;;;;;;;10.20;9.27;;;20.30;95.60;;;;;;638285;222;26734;-71
2022/06/25 02:24:23;;;;;;;10.27;9.27;;;20.20;98.20;;;;;;647691;221;26558;-71
2022/06/25 02:26:51;;;;;;;10.88;9.88;;;20.20;97.10;;;;;;639868;221;26555;-71
2022/06/25 02:29:19;;;;;;;10.30;9.40;;;20.10;99.00;;;;;;650347;219;26531;-71
2022/06/25 02:31:47;;;;;;;10.05;9.10;;;20.20;98.60;;;;;;648955;221;26508;-71
2022/06/25 02:34:15;;;;;;;9.50;8.60;;;20.10;99.80;;;;;;638854;224;26568;-75
2022/06/25 02:36:42;;;;;;;10.88;9.77;;;20.10;99.80;;;;;;642922;221;26567;-73
2022/06/25 02:39:10;;;;;;;9.25;8.45;;;20.10;99.90;;;;;;650994;221;26500;-73
2022/06/25 02:41:37;;;;;;;10.88;9.50;;;20.00;99.90;;;;;;644023;221;26771;-74
2022/06/25 02:44:04;;;;;;;10.20;9.20;;;19.90;99.90;;;;;;637705;224;26747;-73
2022/06/25 02:46:31;;;;;;;11.30;8.93;;;19.90;99.90;;;;;;645463;221;26569;-72
2022/06/25 02:48:58;;;;;;;11.55;9.80;;;19.90;99.90;;;;;;642022;221;26798;-71
2022/06/25 02:51:26;;;;;;;9.60;8.70;;;19.90;99.90;;;;;;637379;224;26569;-71
2022/06/25 02:53:53;;;;;;;9.88;8.70;;;19.90;99.90;;;;;;639826;221;26774;-71
2022/06/25 02:58:55;;;;;;;9.65;8.75;;;20.00;99.90;;;;;;638174;225;26566;-71
2022/06/25 03:01:23;;;;;;;10.13;9.13;;;20.00;99.90;;;;;;637293;226;26508;-71
2022/06/25 03:03:50;;;;;;;9.20;8.32;;;20.00;99.90;;;;;;637466;225;26511;-71
2022/06/25 03:06:17;;;;;;;8.05;7.35;;;19.90;99.90;;;;;;638981;225;26790;-71
2022/06/25 03:08:44;;;;;;;7.43;6.82;;;19.90;99.90;;;;;;638943;225;26616;-71
2022/06/25 03:11:11;;;;;;;8.48;7.60;;;19.90;99.60;;;;;;647685;221;26752;-71
2022/06/25 03:13:39;;;;;;;8.27;7.53;;;19.90;99.90;;;;;;637819;224;26746;-71
2022/06/25 03:16:06;;;;;;;8.32;7.55;;;19.90;99.50;;;;;;643421;220;26797;-70
2022/06/25 03:18:34;;;;;;;9.32;8.40;;;19.90;99.90;;;;;;650536;220;26604;-71
2022/06/25 03:21:01;;;;;;;8.70;8.00;;;20.00;99.90;;;;;;648555;220;26507;-72
2022/06/25 03:23:29;;;;;;;9.20;8.35;;;20.00;99.90;;;;;;638636;224;26552;-71
2022/06/25 03:25:57;;;;;;;9.80;8.90;;;20.00;99.90;;;;;;641162;221;26550;-71
2022/06/25 03:28:25;;;;;;;9.68;8.65;;;20.00;99.90;;;;;;651477;217;26535;-71
2022/06/25 03:30:52;;;;;;;9.05;8.23;;;20.10;99.90;;;;;;651259;221;26525;-71
2022/06/25 03:33:19;;;;;;;9.55;8.55;;;20.10;99.90;;;;;;651372;221;26567;-71
2022/06/25 03:35:47;;;;;;;9.50;8.50;;;20.20;99.90;;;;;;651135;221;26492;-71
2022/06/25 03:38:14;;;;;;;7.85;7.10;;;20.30;99.90;;;;;;651084;221;26571;-71
2022/06/25 03:40:41;;;;;;;7.60;6.90;;;20.40;99.90;;;;;;651134;217;26507;-71
2022/06/25 03:43:08;;;;;;;8.02;7.22;;;20.40;99.40;;;;;;651111;221;26980;-71
2022/06/25 03:45:35;;;;;;;7.97;7.28;;;20.50;99.60;;;;;;651043;221;26673;-71
2022/06/25 03:48:03;;;;;;;7.85;7.05;;;20.50;99.90;;;;;;651087;221;26739;-71
2022/06/25 03:50:30;;;;;;;7.35;6.75;;;20.50;98.50;;;;;;651044;219;26531;-71
2022/06/25 03:52:57;;;;;;;7.60;6.90;;;20.60;98.40;;;;;;650759;221;26542;-71
2022/06/25 03:55:24;;;;;;;7.40;6.70;;;20.60;96.70;;;;;;650752;221;26794;-71
2022/06/25 03:57:52;;;;;;;8.38;7.68;;;20.70;99.90;;;;;;650787;221;26593;-71
2022/06/25 04:00:19;;;;;;;9.40;8.48;;;20.70;99.90;;;;;;650755;221;26903;-71
2022/06/25 04:02:46;;;;;;;7.50;6.80;;;20.80;99.90;;;;;;650765;221;26557;-71
2022/06/25 04:05:13;;;;;;;8.60;7.82;;;20.80;99.10;;;;;;650812;221;26820;-71
2022/06/25 04:07:41;;;;;;;7.93;7.20;;;20.90;97.20;;;;;;650766;221;26517;-71
2022/06/25 04:10:09;;;;;;;7.47;6.87;;;21.00;98.20;;;;;;650744;221;26584;-71
2022/06/25 04:12:37;;;;;;;7.80;7.15;;;21.10;98.50;;;;;;650795;221;26583;-71
2022/06/25 04:15:06;;;;;;;7.75;7.03;;;21.20;98.50;;;;;;650738;221;26514;-71
2022/06/25 04:17:33;;;;;;;7.72;6.93;;;21.20;97.70;;;;;;650670;221;26521;-71
2022/06/25 04:20:03;;;;;;;7.90;7.30;;;21.30;99.60;;;;;;650659;221;26562;-71
2022/06/25 04:22:30;;;;;;;8.40;7.62;;;21.30;99.60;;;;;;650659;221;26877;-71
2022/06/25 04:24:58;;;;;;;7.82;7.20;;;21.50;97.60;;;;;;650636;221;26573;-71
2022/06/25 04:29:58;;;;;;;7.28;6.68;;;21.50;97.50;;;;;;652144;217;27007;-71
2022/06/25 04:32:26;;;;;;;7.45;6.82;;;21.60;97.40;;;;;;651825;220;26548;-71
2022/06/25 04:34:53;;;;;;;9.02;8.23;;;21.60;97.00;;;;;;651811;221;26529;-71
2022/06/25 04:37:21;;;;;;;8.50;7.75;;;21.70;98.00;;;;;;651377;221;26771;-72
2022/06/25 04:39:48;;;;;;;7.35;6.65;;;21.70;97.40;;;;;;651492;218;26790;-70
2022/06/25 04:42:15;;;;;;;7.47;6.80;;;21.70;96.80;;;;;;651546;221;26565;-71
2022/06/25 04:44:42;;;;;;;7.97;7.18;;;21.70;95.90;;;;;;651392;220;26885;-71
2022/06/25 04:47:09;;;;;;;7.40;6.70;;;21.70;96.00;;;;;;651198;221;26513;-70
2022/06/25 04:49:37;;;;;;;7.55;6.95;;;21.70;96.30;;;;;;651191;217;26746;-71
2022/06/25 04:52:05;;;;;;;8.50;7.80;;;21.70;96.50;;;;;;651205;221;26508;-71
2022/06/25 04:54:32;;;;;;;7.55;6.85;;;21.70;96.50;;;;;;651220;221;26518;-71
2022/06/25 04:56:59;;;;;;;6.95;6.45;;;21.80;97.20;;;;;;651185;221;27231;-71
2022/06/25 04:59:26;;;;;;;7.37;6.70;;;21.80;97.10;;;;;;651163;219;26528;-71
2022/06/25 05:01:54;;;;;;;7.32;6.72;;;22.00;96.70;;;;;;651153;221;26513;-71
2022/06/25 05:04:22;;;;;;;7.18;6.57;;;22.20;95.10;;;;;;650862;221;26543;-71
2022/06/25 05:06:50;;;;;;;7.80;7.10;;;22.20;95.10;;;;;;650806;221;26582;-71
2022/06/25 05:09:17;;;;;;;7.00;6.35;;;22.60;93.90;;;;;;650783;221;26574;-71
2022/06/25 05:11:45;;;;;;;8.52;7.80;;;22.60;93.60;;;;;;650803;221;26557;-72
2022/06/25 05:14:12;;;;;;;7.50;6.62;;;22.90;93.30;;;;;;650739;221;26714;-72
2022/06/25 05:16:39;;;;;;;7.95;7.18;;;23.00;92.70;;;;;;650786;221;26790;-71
2022/06/25 05:19:06;;;;;;;7.30;6.70;;;23.30;93.00;;;;;;650762;221;26587;-71
2022/06/25 05:21:34;;;;;;;7.55;6.95;;;23.50;90.90;;;;;;650744;220;26789;-71
2022/06/25 05:24:01;;;;;;;7.60;7.00;;;23.70;89.00;;;;;;650734;221;26530;-71
2022/06/25 05:26:28;;;;;;;7.30;6.60;;;23.80;88.00;;;;;;650644;221;26812;-71
2022/06/25 05:28:55;;;;;;;7.00;6.40;;;23.80;90.40;;;;;;650762;219;26529;-71
2022/06/25 05:31:22;;;;;;;7.20;6.62;;;23.90;90.20;;;;;;650745;221;26859;-71
2022/06/25 05:33:49;;;;;;;8.07;7.28;;;24.10;89.90;;;;;;650783;219;26556;-71
2022/06/25 05:36:17;;;;;;;7.43;6.72;;;24.20;88.80;;;;;;650769;221;26563;-71
2022/06/25 05:38:45;;;;;;;7.32;6.72;;;24.40;85.80;;;;;;651853;217;26643;-71
2022/06/25 05:41:13;;;;;;;7.93;7.22;;;24.60;85.30;;;;;;652183;220;26625;-71
2022/06/25 05:43:40;;;;;;;7.18;6.10;;;24.70;83.60;;;;;;651895;220;26512;-71
2022/06/25 05:46:08;;;;;;;7.82;7.10;;;24.80;80.60;;;;;;651754;221;26517;-71
2022/06/25 05:48:36;;;;;;;7.95;7.35;;;24.70;80.60;;;;;;651448;221;26588;-71
2022/06/25 05:51:03;;;;;;;8.27;7.57;;;24.80;82.30;;;;;;651448;221;26572;-70
2022/06/25 05:53:31;;;;;;;7.35;6.72;;;24.40;83.10;;;;;;651406;221;26552;-70
2022/06/25 05:55:59;;;;;;;7.97;7.18;;;24.30;82.10;;;;;;651329;221;26548;-70
2022/06/25 05:58:27;;;;;;;6.75;6.25;;;24.20;82.70;;;;;;651078;218;26516;-70
2022/06/25 06:00:54;;;;;;;7.43;6.68;;;24.20;82.80;;;;;;651047;221;26508;-70
2022/06/25 06:03:21;;;;;;;7.45;6.65;;;24.20;83.10;;;;;;650989;221;26524;-71
2022/06/25 06:05:48;;;;;;;7.20;6.60;;;24.30;82.60;;;;;;650976;221;26841;-71
2022/06/25 06:08:16;;;;;;;6.97;6.37;;;24.30;78.80;;;;;;650989;221;26510;-71
2022/06/25 06:10:43;;;;;;;7.15;6.55;;;24.50;79.70;;;;;;651073;221;26503;-71
2022/06/25 06:13:10;;;;;;;6.70;6.10;;;24.40;81.00;;;;;;651071;220;26516;-71
2022/06/25 06:15:37;;;;;;;7.47;6.78;;;24.50;78.80;;;;;;650816;221;27177;-72
2022/06/25 06:18:04;;;;;;;6.68;6.15;;;24.80;77.70;;;;;;650779;221;26777;-71
2022/06/25 06:20:32;;;;;;;6.28;5.78;;;25.00;77.30;;;;;;650721;221;26865;-71
2022/06/25 06:22:59;;;;;;;6.80;6.30;;;25.00;79.30;;;;;;650797;221;26526;-70
2022/06/25 06:25:26;;;;;;;6.53;6.03;;;25.10;78.80;;;;;;650744;219;26793;-71
2022/06/25 06:27:53;;;;;;;7.30;6.62;;;24.80;78.40;;;;;;650748;221;26566;-71
2022/06/25 06:30:20;;;;;;;7.53;6.93;;;24.70;77.80;;;;;;650751;221;27238;-72
2022/06/25 06:32:48;;;;;;;6.93;6.43;;;24.70;79.70;;;;;;650737;221;26590;-72
2022/06/25 06:35:16;;;;;;;6.47;5.97;;;24.70;79.30;;;;;;650770;221;26571;-71
2022/06/25 06:37:44;;;;;;;7.18;6.57;;;24.60;78.10;;;;;;650686;221;26522;-71
2022/06/25 06:40:12;;;;;;;6.62;6.12;;;24.60;77.70;;;;;;650710;221;26577;-71
2022/06/25 06:42:40;;;;;;;6.47;5.97;;;24.60;77.40;;;;;;650731;221;26553;-71
2022/06/25 06:45:08;;;;;;;7.07;6.57;;;24.60;77.80;;;;;;650765;221;26574;-71
2022/06/25 06:47:35;;;;;;;6.82;6.32;;;24.80;78.10;;;;;;650770;221;26563;-72
2022/06/25 06:50:04;;;;;;;6.37;5.87;;;25.20;77.60;;;;;;651724;219;26819;-72
2022/06/25 06:52:31;;;;;;;7.10;6.50;;;25.60;76.50;;;;;;652294;220;26586;-71
2022/06/25 06:55:01;;;;;;;6.90;6.40;;;26.20;74.20;;;;;;651866;220;26518;-71
2022/06/25 06:57:26;;;;;;;7.45;6.80;;;26.10;74.00;;;;;;651865;221;26520;-72
2022/06/25 06:59:53;;;;;;;7.05;6.43;;;26.10;71.50;;;;;;651503;217;26546;-71
2022/06/25 07:02:21;;;;;;;6.93;6.30;;;25.90;75.10;;;;;;651402;221;26576;-71
2022/06/25 07:04:49;;;;;;;6.45;5.95;;;26.00;74.10;;;;;;651450;220;26602;-72
2022/06/25 07:07:17;;;;;;;7.80;7.15;;;26.10;74.30;;;;;;651362;221;26562;-72
2022/06/25 07:09:45;;;;;;;7.05;6.55;;;26.10;72.80;;;;;;651083;221;26539;-72
2022/06/25 07:12:12;;;;;;;7.55;6.75;;;26.10;72.70;;;;;;651112;221;26520;-72
2022/06/25 07:14:40;;;;;;;7.00;6.40;;;26.10;74.50;;;;;;651132;221;26512;-71
2022/06/25 07:17:07;;;;;;;7.05;6.40;;;26.00;72.60;;;;;;651091;221;26892;-72
2022/06/25 07:19:34;;;;;;;8.32;6.40;;;26.10;73.40;;;;;;650946;218;26528;-71
2022/06/25 07:22:02;;;;;;;7.00;6.37;;;26.10;74.60;;;;;;650981;221;26833;-71
2022/06/25 07:24:28;;;;;;;7.80;7.10;;;26.10;70.80;;;;;;650957;221;26476;-71
2022/06/25 07:26:56;;;;;;;7.37;6.75;;;26.20;71.90;;;;;;650812;221;26800;-72
2022/06/25 07:29:23;;;;;;;8.05;7.35;;;26.30;70.40;;;;;;650768;221;26581;-71
2022/06/25 07:31:51;;;;;;;7.82;7.07;;;26.40;72.20;;;;;;650825;221;26795;-71
2022/06/25 07:34:17;;;;;;;7.40;6.70;;;26.40;72.30;;;;;;650789;221;26575;-71
2022/06/25 07:36:44;;;;;;;7.40;6.70;;;26.30;73.40;;;;;;650803;221;26825;-72
2022/06/25 07:39:12;;;;;;;7.78;7.18;;;26.40;72.00;;;;;;650770;221;26810;-71
2022/06/25 07:41:39;;;;;;;6.95;6.40;;;26.50;70.40;;;;;;650782;221;26795;-72
2022/06/25 07:44:06;;;;;;;8.00;7.20;;;26.70;71.80;;;;;;650809;221;26512;-72
2022/06/25 07:46:33;;;;;;;7.28;6.68;;;26.80;69.90;;;;;;650758;221;26728;-71
2022/06/25 07:49:00;;;;;;;7.57;6.95;;;27.00;71.30;;;;;;650768;221;26572;-71
2022/06/25 07:54:00;;;;;;;8.13;7.50;;;27.10;67.90;;;;;;650819;221;26561;-73
2022/06/25 07:56:28;;;;;;;7.57;7.05;;;27.20;69.40;;;;;;650805;221;26749;-72
2022/06/25 07:58:55;;;;;;;7.43;6.75;;;27.40;68.60;;;;;;650777;221;26594;-73
2022/06/25 08:01:22;;;;;;;7.37;6.78;;;27.40;67.90;;;;;;639402;220;27294;-70
2022/06/25 08:03:49;;;;;;;7.43;6.82;;;27.50;68.80;;;;;;652371;220;26507;-72
2022/06/25 08:06:16;;;;;;;7.72;7.03;;;27.50;65.10;;;;;;651945;220;26736;-71
2022/06/25 08:08:44;;;;;;;7.85;7.15;;;27.70;64.40;;;;;;651800;218;26528;-72
2022/06/25 08:11:11;;;;;;;7.25;6.65;;;27.80;64.80;;;;;;651588;221;26758;-72
2022/06/25 08:13:38;;;;;;;8.25;6.30;;;28.10;65.80;;;;;;648489;221;26580;-72
2022/06/25 08:16:09;;;;;;;9.05;6.93;;;28.00;64.90;;;;;;644778;221;26525;-74
2022/06/25 08:18:33;;;;;;;9.45;6.97;;;28.00;64.90;;;;;;638886;224;26737;-73
2022/06/25 08:21:00;;;;;;;6.85;6.15;;;27.70;65.60;;;;;;643925;221;26551;-73
2022/06/25 08:23:28;;;;;;;8.55;6.50;;;27.40;65.30;;;;;;651169;221;26748;-71
2022/06/25 08:25:56;;;;;;;6.57;6.07;;;27.70;63.70;;;;;;639942;221;26595;-72
2022/06/25 08:28:24;;;;;;;7.62;7.03;;;27.80;62.60;;;;;;638947;221;26582;-72
2022/06/25 08:30:51;;;;;;;7.12;6.57;;;27.70;62.60;;;;;;639088;225;26552;-72
2022/06/25 08:33:18;;;;;;;7.32;6.60;;;27.80;62.70;;;;;;639042;223;26795;-74
2022/06/25 08:35:46;;;;;;;9.23;7.32;;;27.90;63.50;;;;;;639124;224;26573;-73
2022/06/25 08:38:13;;;;;;;7.25;6.68;;;28.10;63.80;;;;;;640248;222;27094;-72
2022/06/25 08:40:40;;;;;;;7.07;6.55;;;28.00;62.10;;;;;;645156;222;26533;-72
2022/06/25 08:43:07;;;;;;;6.78;6.28;;;28.20;60.70;;;;;;642172;223;26844;-72
2022/06/25 08:45:35;;;;;;;8.15;7.30;;;28.40;59.60;;;;;;640796;222;26550;-73
2022/06/25 08:48:02;;;;;;;7.40;6.72;;;28.50;59.10;;;;;;637457;225;26544;-73
2022/06/25 08:50:30;;;;;;;8.35;7.43;;;28.30;59.70;;;;;;641490;221;26572;-72
2022/06/25 08:52:58;;;;;;;7.53;6.93;;;28.30;59.60;;;;;;644871;220;26583;-73
2022/06/25 08:55:30;;;;;;;7.20;6.57;;;28.00;59.80;;;;;;638345;225;26632;-72
2022/06/25 08:57:57;;;;;;;7.32;6.72;;;28.00;59.80;;;;;;637885;221;26524;-72
2022/06/25 09:00:25;;;;;;;7.70;7.03;;;27.90;59.70;;;;;;647775;220;27259;-72
2022/06/25 09:02:52;;;;;;;8.05;7.25;;;28.10;59.50;;;;;;642794;221;26797;-72
2022/06/25 09:05:34;;;;;;;7.03;6.40;;;28.10;59.50;;;;;;643742;221;26803;-72
2022/06/25 09:08:01;;;;;;;7.90;7.20;;;28.30;58.60;;;;;;637516;223;26526;-72
2022/06/25 09:10:29;;;;;;;6.72;6.12;;;28.80;58.10;;;;;;641587;221;26581;-72
2022/06/25 09:12:57;;;;;;;6.78;6.20;;;29.70;56.60;;;;;;646139;221;26578;-72
2022/06/25 09:15:24;;;;;;;7.53;6.93;;;29.70;56.60;;;;;;638883;224;26562;-72
2022/06/25 09:17:51;;;;;;;7.43;6.82;;;29.80;56.00;;;;;;649379;220;26513;-71
2022/06/25 09:20:18;;;;;;;7.07;6.37;;;30.10;55.80;;;;;;649588;221;26798;-74
2022/06/25 09:22:55;;;;;;;6.43;5.82;;;30.20;55.40;;;;;;643680;221;26579;-72
2022/06/25 09:25:25;;;;;;;7.85;7.15;;;30.00;54.90;;;;;;643093;221;26597;-69
2022/06/25 09:27:52;;;;;;;9.68;8.00;;;30.00;54.90;;;;;;639273;224;26513;-69
2022/06/25 09:30:20;;;;;;;14.30;7.78;;;29.80;55.70;;;;;;640730;222;26534;-70
2022/06/25 09:32:49;;;;;;;21.27;9.23;;;29.70;55.60;;;;;;645159;221;26567;-73
2022/06/25 09:35:31;;;;;;;89.15;26.37;;;29.80;55.60;;;;;;645004;221;26487;-72
2022/06/25 09:38:03;;;;;;;132.25;37.30;;;29.70;55.50;;;;;;637688;224;26776;-71
2022/06/25 09:40:30;;;;;;;109.87;30.77;;;30.00;54.80;;;;;;650471;221;26789;-71
2022/06/25 09:42:57;;;;;;;54.15;18.75;;;30.00;54.30;;;;;;646897;221;26514;-73
2022/06/25 09:45:25;;;;;;;85.55;26.35;;;29.80;53.80;;;;;;638229;225;26534;-73
2022/06/25 09:47:53;;;;;;;21.02;10.38;;;30.20;54.00;;;;;;639069;225;26598;-73
2022/06/25 09:50:21;;;;;;;84.95;27.62;;;30.30;53.60;;;;;;644650;222;26593;-74
2022/06/25 09:52:49;;;;;;;77.93;26.20;;;30.30;53.00;;;;;;639216;221;26544;-74
2022/06/25 09:55:17;;;;;;;52.60;19.92;;;30.20;53.30;;;;;;649995;221;26580;-74
2022/06/25 09:57:45;;;;;;;32.88;15.95;;;30.20;53.30;;;;;;639085;221;26516;-73
2022/06/25 10:00:11;;;;;;;23.65;10.48;;;30.20;53.30;;;;;;638053;224;26914;-73
2022/06/25 10:02:39;;;;;;;60.00;20.60;;;30.40;53.10;;;;;;638133;225;26552;-74
2022/06/25 10:05:06;;;;;;;32.60;15.38;;;30.40;53.20;;;;;;638217;225;26532;-74
2022/06/25 10:10:07;;;;;;;6.90;6.20;;;30.00;53.30;;;;;;638836;225;26567;-73
2022/06/25 10:12:34;;;;;;;6.15;5.68;;;30.00;53.30;;;;;;638798;225;26752;-74
2022/06/25 10:15:02;;;;;;;14.23;7.68;;;29.80;54.30;;;;;;638933;225;26524;-74
2022/06/25 10:17:30;;;;;;;5.93;5.43;;;29.20;54.40;;;;;;639409;221;26510;-74
2022/06/25 10:19:58;;;;;;;6.45;5.95;;;29.20;54.40;;;;;;640760;221;26569;-74
2022/06/25 10:22:27;;;;;;;8.23;6.05;;;29.10;54.90;;;;;;645855;220;26547;-76
2022/06/25 10:24:52;;;;;;;7.12;6.40;;;29.00;54.80;;;;;;639787;220;26574;-74
2022/06/25 10:27:20;;;;;;;6.55;6.05;;;28.90;55.30;;;;;;640407;220;26526;-75
2022/06/25 10:29:53;;;;;;;6.57;5.90;;;28.90;55.50;;;;;;639892;222;26514;-75
2022/06/25 10:32:19;;;;;;;6.05;5.55;;;28.90;55.10;;;;;;639403;224;26522;-75
2022/06/25 10:34:57;;;;;;;5.82;5.37;;;29.00;54.50;;;;;;639420;221;26596;-74
2022/06/25 10:37:25;;;;;;;6.78;6.05;;;29.10;54.60;;;;;;639396;225;26566;-75
2022/06/25 10:39:53;;;;;;;7.80;7.00;;;29.00;54.60;;;;;;640650;220;26520;-74
2022/06/25 10:45:05;;;;;;;5.75;5.35;;;28.90;54.80;;;;;;653310;220;26915;-68
2022/06/25 10:47:40;;;;;;;6.03;5.62;;;28.80;54.70;;;;;;653313;220;26571;-70
2022/06/25 10:50:30;;;;;;;6.90;5.28;;;28.80;55.00;;;;;;653283;220;26577;-68
2022/06/25 10:53:17;;;;;;;5.50;5.10;;;28.80;54.50;;;;;;652492;220;26596;-68
2022/06/25 10:56:02;;;;;;;6.05;5.45;;;28.80;54.90;;;;;;653138;220;26597;-67
2022/06/25 10:58:44;;;;;;;7.95;7.12;;;28.80;54.90;;;;;;652509;220;26812;-68
2022/06/25 11:01:23;;;;;;;7.05;6.35;;;28.80;54.90;;;;;;653145;220;26552;-68
2022/06/25 11:03:52;;;;;;;10.70;7.05;;;28.80;54.70;;;;;;653026;220;26520;-68
2022/06/25 11:06:18;;;;;;;8.50;6.47;;;28.60;54.80;;;;;;652818;220;26780;-68
2022/06/25 11:08:46;;;;;;;5.10;4.75;;;28.50;54.80;;;;;;652907;220;26592;-68
2022/06/25 11:11:14;;;;;;;4.35;4.03;;;28.40;54.70;;;;;;652871;220;26504;-68
2022/06/25 11:13:42;;;;;;;4.60;4.30;;;28.40;55.00;;;;;;651616;220;26569;-68
2022/06/25 11:16:14;;;;;;;4.68;4.37;;;28.30;54.80;;;;;;652962;220;26588;-68
2022/06/25 11:18:45;;;;;;;5.22;4.75;;;28.20;54.70;;;;;;652948;218;26608;-68
2022/06/25 11:21:24;;;;;;;5.03;4.57;;;28.20;54.80;;;;;;652839;220;26541;-68
2022/06/25 11:23:51;;;;;;;5.43;4.78;;;28.40;55.00;;;;;;652923;220;26573;-68
2022/06/25 11:28:52;;;;;;;4.57;4.28;;;28.80;55.10;;;;;;652958;220;26572;-68
2022/06/25 11:31:19;;;;;;;4.90;4.50;;;29.00;54.70;;;;;;652959;220;26548;-68
2022/06/25 11:33:46;;;;;;;4.20;3.90;;;29.10;54.70;;;;;;652475;220;26838;-68
2022/06/25 11:36:13;;;;;;;4.60;4.30;;;29.20;54.70;;;;;;653793;218;26561;-68
2022/06/25 11:38:40;;;;;;;7.72;5.53;;;29.20;54.30;;;;;;654500;219;26793;-68
2022/06/25 11:41:07;;;;;;;6.55;5.95;;;29.30;54.00;;;;;;654129;220;26567;-69
2022/06/25 11:43:34;;;;;;;6.93;6.25;;;29.20;54.00;;;;;;653983;220;26744;-68
2022/06/25 11:46:02;;;;;;;7.07;6.35;;;29.20;53.80;;;;;;653701;220;26566;-69
2022/06/25 11:48:29;;;;;;;11.07;6.90;;;29.00;54.30;;;;;;653627;220;26771;-69
2022/06/25 11:50:57;;;;;;;7.68;6.18;;;28.70;54.50;;;;;;653581;220;26801;-69
2022/06/25 11:53:24;;;;;;;5.95;5.25;;;28.60;54.80;;;;;;653405;220;26545;-69
2022/06/25 11:55:57;;;;;;;5.47;4.97;;;28.60;54.70;;;;;;653278;220;26766;-69
2022/06/25 11:58:26;;;;;;;6.37;5.78;;;28.60;54.80;;;;;;653274;220;26551;-69
2022/06/25 12:00:51;;;;;;;7.05;6.18;;;28.60;54.90;;;;;;653206;220;26557;-69
2022/06/25 12:03:18;;;;;;;4.70;4.40;;;28.80;55.10;;;;;;653334;220;26781;-69
2022/06/25 12:05:45;;;;;;;4.90;4.50;;;29.10;54.60;;;;;;652762;220;26875;-69
2022/06/25 12:08:14;;;;;;;4.30;4.00;;;29.50;54.10;;;;;;653352;220;26579;-68
2022/06/25 12:10:42;;;;;;;3.45;3.25;;;29.80;53.50;;;;;;653271;220;26550;-68
2022/06/25 12:13:07;;;;;;;4.22;3.92;;;30.00;53.60;;;;;;652967;220;26516;-69
2022/06/25 12:15:35;;;;;;;4.62;4.32;;;30.00;53.10;;;;;;647681;220;26801;-68
2022/06/25 12:18:03;;;;;;;16.83;7.12;;;30.20;53.10;;;;;;645782;221;26564;-74
2022/06/25 12:20:31;;;;;;;4.43;4.07;;;30.20;53.00;;;;;;644234;221;26812;-71
2022/06/25 12:22:58;;;;;;;6.47;5.05;;;30.20;52.70;;;;;;638484;221;26536;-73
2022/06/25 12:25:25;;;;;;;3.97;3.78;;;30.60;52.20;;;;;;638762;225;26827;-73
2022/06/25 12:27:52;;;;;;;7.00;6.40;;;31.30;51.00;;;;;;640240;221;26564;-74
2022/06/25 12:30:22;;;;;;;4.68;4.30;;;31.60;51.00;;;;;;640199;221;26840;-70
2022/06/25 12:32:48;;;;;;;5.10;4.20;;;32.00;50.20;;;;;;639784;221;26514;-72
2022/06/25 12:35:17;;;;;;;5.07;4.72;;;32.40;49.70;;;;;;640774;221;26773;-71
2022/06/25 12:37:44;;;;;;;8.02;5.43;;;32.40;49.20;;;;;;645217;221;26589;-73
2022/06/25 12:40:11;;;;;;;4.75;3.92;;;32.50;49.10;;;;;;639153;221;26770;-73
2022/06/25 12:42:39;;;;;;;8.60;6.75;;;32.70;48.80;;;;;;638129;224;26547;-73
2022/06/25 12:45:07;;;;;;;9.65;6.10;;;33.20;48.00;;;;;;635293;224;26779;-74
2022/06/25 12:47:39;;;;;;;8.35;6.57;;;33.30;47.40;;;;;;641049;222;26595;-74
2022/06/25 12:50:07;;;;;;;10.35;5.95;;;33.90;47.60;;;;;;649682;220;26625;-74
2022/06/25 12:52:35;;;;;;;14.77;8.35;;;33.80;47.50;;;;;;650735;220;26512;-74
2022/06/25 12:55:03;;;;;;;23.02;12.65;;;34.30;46.50;;;;;;642941;220;26797;-74
2022/06/25 12:57:30;;;;;;;23.98;13.70;;;34.40;46.10;;;;;;639040;221;26719;-74
2022/06/25 12:59:57;;;;;;;30.77;15.00;;;34.50;45.30;;;;;;641868;221;26855;-74
2022/06/25 13:02:24;;;;;;;21.77;14.25;;;33.90;45.30;;;;;;643654;222;26521;-75
2022/06/25 13:04:51;;;;;;;27.00;15.05;;;33.50;45.50;;;;;;646315;221;26910;-75
2022/06/25 13:07:19;;;;;;;22.33;14.50;;;33.30;46.00;;;;;;645771;221;26565;-75
2022/06/25 13:09:46;;;;;;;22.75;14.15;;;34.80;44.80;;;;;;647200;221;26892;-76